Time;durP1;ratioP1;P1;durP2;ratioP2;P2;SDS_P1;SDS_P2;PMS_P1;PMS_P2;Temp;Humidity;BMP_temperature;BMP_pressure;BME280_temperature;BME280_humidity;BME280_pressure;Samples;Min_cycle;Max_cycle;Signal;HPM_P1;HPM_P2
2023/09/21 00:01:11;;;;;;;1.25;1.15;;;;;;;18.06;100.00;97261.72;1199153;75;11713879;-76
2023/09/21 00:03:44;;;;;;;3.20;1.60;;;;;;;17.79;100.00;97253.44;1190261;75;5897296;-78
2023/09/21 00:06:20;;;;;;;1.95;1.70;;;;;;;17.95;100.00;97262.00;1201381;75;4897903;-82
2023/09/21 00:08:53;;;;;;;2.20;1.35;;;;;;;17.91;100.00;97258.78;1226029;67;2918260;-79
2023/09/21 00:11:26;;;;;;;2.40;1.60;;;;;;;17.65;100.00;97255.50;1197712;75;3964500;-82
2023/09/21 00:13:59;;;;;;;3.10;2.00;;;;;;;17.71;100.00;97263.69;1035880;75;11779803;-78
2023/09/21 00:16:32;;;;;;;2.95;1.70;;;;;;;17.80;100.00;97257.75;1198010;75;4062015;-77
2023/09/21 00:19:10;;;;;;;2.25;1.40;;;;;;;17.84;100.00;97262.94;1223692;75;2958541;-81
2023/09/21 00:21:46;;;;;;;2.80;1.20;;;;;;;17.84;100.00;97260.19;1121145;75;9629700;-82
2023/09/21 00:24:21;;;;;;;1.15;1.05;;;;;;;17.78;100.00;97251.22;1226408;75;2938274;-77
2023/09/21 00:26:54;;;;;;;1.70;1.20;;;;;;;17.80;100.00;97251.44;1149043;75;7009929;-77
2023/09/21 00:29:27;;;;;;;1.70;1.40;;;;;;;17.73;100.00;97249.31;1213687;75;3895171;-79
2023/09/21 00:31:59;;;;;;;1.20;1.10;;;;;;;17.65;100.00;97249.19;1225819;75;2926010;-81
2023/09/21 00:34:34;;;;;;;1.20;0.90;;;;;;;17.71;100.00;97249.84;1220621;75;3024526;-80
2023/09/21 00:37:11;;;;;;;1.50;1.10;;;;;;;17.53;100.00;97245.91;1159908;75;5038733;-81
2023/09/21 00:39:45;;;;;;;1.80;1.40;;;;;;;17.45;100.00;97245.06;1179723;75;5071586;-77
2023/09/21 00:42:17;;;;;;;1.60;1.40;;;;;;;17.56;100.00;97241.34;1105163;75;9765258;-83
2023/09/21 00:44:52;;;;;;;2.20;1.00;;;;;;;17.55;100.00;97229.53;1200118;75;4946912;-80
2023/09/21 00:47:25;;;;;;;1.35;1.05;;;;;;;17.56;100.00;97233.78;1225537;75;2940717;-78
2023/09/21 00:49:58;;;;;;;1.85;1.20;;;;;;;17.55;100.00;97229.53;1198304;75;5107507;-80
2023/09/21 00:52:33;;;;;;;1.20;1.10;;;;;;;17.55;100.00;97226.00;1225043;75;2955348;-84
2023/09/21 00:55:07;;;;;;;;;;;;;;;17.52;100.00;97227.81;1061950;75;15083100;-79
2023/09/21 00:57:40;;;;;;;1.80;1.30;;;;;;;17.52;100.00;97219.53;1214493;75;3843294;-80
2023/09/21 01:00:16;;;;;;;2.15;1.25;;;;;;;17.16;100.00;97224.75;1188338;75;4889828;-78
2023/09/21 01:02:51;;;;;;;1.95;1.45;;;;;;;17.22;100.00;97226.16;1213368;75;3865539;-81
2023/09/21 01:05:24;;;;;;;1.90;1.60;;;;;;;17.09;100.00;97233.69;1227581;75;2916826;-77
2023/09/21 01:08:04;;;;;;;2.10;1.40;;;;;;;17.14;100.00;97225.28;1213036;75;3904157;-81
2023/09/21 01:10:38;;;;;;;1.40;1.30;;;;;;;17.29;100.00;97224.75;1199388;75;3975549;-81
2023/09/21 01:13:12;;;;;;;1.95;1.35;;;;;;;17.10;100.00;97229.63;1164059;75;5888798;-79
2023/09/21 01:15:48;;;;;;;1.95;1.75;;;;;;;17.04;100.00;97224.19;1200470;75;4867922;-81
2023/09/21 01:18:21;;;;;;;2.30;1.70;;;;;;;17.16;100.00;97214.41;1211551;75;3962163;-79
2023/09/21 01:20:55;;;;;;;2.15;1.80;;;;;;;17.04;100.00;97224.19;1211395;75;3889124;-77
2023/09/21 01:23:39;;;;;;;2.80;1.60;;;;;;;17.25;100.00;97216.03;1126762;75;10597864;-79
2023/09/21 01:26:13;;;;;;;1.40;1.20;;;;;;;17.36;100.00;97210.25;1222759;67;3036763;-79
2023/09/21 01:28:47;;;;;;;1.95;1.50;;;;;;;17.29;100.00;97205.38;1226768;75;2922334;-79
2023/09/21 01:31:20;;;;;;;1.25;1.15;;;;;;;17.26;100.00;97203.69;1214434;75;3839601;-79
2023/09/21 01:33:53;;;;;;;1.30;1.20;;;;;;;17.12;100.00;97200.16;1226866;75;2920980;-78
2023/09/21 01:36:26;;;;;;;1.55;1.30;;;;;;;17.44;100.00;97204.84;1200276;75;5020477;-82
2023/09/21 01:39:03;;;;;;;1.75;1.20;;;;;;;17.51;100.00;97208.97;1213034;75;3867645;-81
2023/09/21 01:41:35;;;;;;;1.10;1.00;;;;;;;17.45;100.00;97198.78;1217636;75;3064114;-79
2023/09/21 01:44:09;;;;;;;3.25;1.60;;;;;;;17.33;100.00;97194.75;1219128;75;3069233;-79
2023/09/21 01:46:42;;;;;;;1.85;1.50;;;;;;;17.39;100.00;97186.31;1213129;75;3836746;-82
2023/09/21 01:49:15;;;;;;;2.25;1.40;;;;;;;17.36;100.00;97185.38;1184113;75;4930541;-78
2023/09/21 01:51:49;;;;;;;2.85;1.50;;;;;;;17.56;100.00;97172.91;1129792;75;10775229;-81
2023/09/21 01:54:25;;;;;;;1.65;1.10;;;;;;;17.67;100.00;97174.69;1225307;75;2930651;-78
2023/09/21 01:56:59;;;;;;;2.30;1.50;;;;;;;17.71;100.00;97166.06;1210799;75;4047296;-80
2023/09/21 01:59:33;;;;;;;2.00;1.25;;;;;;;17.72;100.00;97170.31;1221568;75;3054966;-81
2023/09/21 02:02:06;;;;;;;1.70;1.40;;;;;;;17.77;100.00;97164.63;1199871;75;4898382;-79
2023/09/21 02:04:38;;;;;;;1.70;1.20;;;;;;;17.67;100.00;97160.84;1173853;75;5008433;-82
2023/09/21 02:07:12;;;;;;;4.00;1.90;;;;;;;17.42;100.00;97158.34;1211148;75;4098660;-78
2023/09/21 02:09:47;;;;;;;2.80;1.90;;;;;;;17.49;100.00;97156.22;1222113;75;3102879;-81
2023/09/21 02:12:20;;;;;;;2.75;1.70;;;;;;;17.63;100.00;97150.09;1225826;75;2925352;-78
2023/09/21 02:14:52;;;;;;;2.50;1.70;;;;;;;17.58;100.00;97150.22;1225502;75;2938612;-79
2023/09/21 02:17:25;;;;;;;3.00;1.90;;;;;;;17.64;100.00;97137.75;1141229;75;9885267;-82
2023/09/21 02:19:59;;;;;;;3.65;1.70;;;;;;;17.76;100.00;97135.47;1213309;75;3905713;-78
2023/09/21 02:22:31;;;;;;;2.30;1.35;;;;;;;17.79;100.00;97133.66;1196135;75;5078922;-80
2023/09/21 02:25:10;;;;;;;3.30;2.50;;;;;;;17.32;100.00;97128.88;1171964;75;5017953;-77
2023/09/21 02:27:45;;;;;;;3.15;2.10;;;;;;;17.64;100.00;97121.13;1213376;68;3859443;-79
2023/09/21 02:30:21;;;;;;;2.15;1.65;;;;;;;17.84;100.00;97116.94;1187098;75;4930942;-80
2023/09/21 02:32:56;;;;;;;1.90;1.70;;;;;;;17.95;100.00;97113.19;1209394;75;4021639;-77
2023/09/21 02:35:30;;;;;;;2.20;1.50;;;;;;;17.88;100.00;97111.06;1197211;75;4965190;-81
2023/09/21 02:38:03;;;;;;;2.25;1.60;;;;;;;17.47;100.00;97118.00;1188337;75;4876115;-79
2023/09/21 02:40:40;;;;;;;5.05;2.70;;;;;;;17.24;100.00;97118.47;1144402;75;8484725;-80
2023/09/21 02:43:15;;;;;;;4.60;2.90;;;;;;;17.36;100.00;97124.50;1213095;75;3907650;-79
2023/09/21 02:45:54;;;;;;;4.07;2.80;;;;;;;17.48;100.00;97125.00;1196116;83;9495334;-75
2023/09/21 02:48:26;;;;;;;2.90;2.30;;;;;;;17.59;100.00;97115.72;1223692;75;3002024;-77
2023/09/21 02:50:59;;;;;;;2.50;2.20;;;;;;;17.59;100.00;97119.25;1184842;75;4040856;-81
2023/09/21 02:53:32;;;;;;;3.55;2.20;;;;;;;17.68;100.00;97106.97;1124309;67;10816395;-78
2023/09/21 02:56:09;;;;;;;2.15;1.85;;;;;;;17.93;100.00;97115.00;1199387;75;5026118;-79
2023/09/21 02:58:43;;;;;;;1.70;1.60;;;;;;;18.07;100.00;97108.84;1212104;75;3850129;-82
2023/09/21 03:01:20;;;;;;;1.85;1.60;;;;;;;18.07;100.00;97110.88;1186873;75;4880300;-80
2023/09/21 03:03:52;;;;;;;3.35;2.10;;;;;;;17.81;100.00;97101.41;1172839;75;4049788;-79
2023/09/21 03:06:25;;;;;;;3.40;2.00;;;;;;;17.78;100.00;97105.22;1211424;75;3944001;-82
2023/09/21 03:09:00;;;;;;;3.45;2.10;;;;;;;17.75;100.00;97100.78;1129890;75;8745209;-77
2023/09/21 03:11:35;;;;;;;5.25;2.90;;;;;;;17.82;100.00;97107.69;1198315;75;4024239;-78
2023/09/21 03:14:08;;;;;;;3.90;2.40;;;;;;;17.98;100.00;97095.47;1145166;75;9460550;-80
2023/09/21 03:16:47;;;;;;;7.70;2.72;;;;;;;17.98;100.00;97092.69;1114902;75;6950144;-77
2023/09/21 03:19:19;;;;;;;3.15;2.40;;;;;;;18.13;100.00;97089.31;1212593;75;3956240;-80
2023/09/21 03:21:52;;;;;;;5.20;3.05;;;;;;;18.08;100.00;97093.72;1225831;75;2930412;-79
2023/09/21 03:24:25;;;;;;;3.50;2.35;;;;;;;18.09;100.00;97086.91;1187567;75;4977633;-81
2023/09/21 03:27:00;;;;;;;2.65;2.30;;;;;;;18.12;100.00;97081.56;1221799;75;3110986;-81
2023/09/21 03:29:33;;;;;;;3.05;2.35;;;;;;;18.27;100.00;97082.41;1226960;75;2931920;-79
2023/09/21 03:32:06;;;;;;;2.50;1.90;;;;;;;18.24;100.00;97086.28;1199569;75;4895475;-79
2023/09/21 03:34:39;;;;;;;3.55;1.95;;;;;;;18.31;100.00;97073.78;1222679;75;3091105;-78
2023/09/21 03:37:13;;;;;;;5.75;2.70;;;;;;;18.09;100.00;97073.06;1223117;75;3023494;-80
2023/09/21 03:39:47;;;;;;;4.20;2.65;;;;;;;18.21;100.00;97072.78;1114103;75;13008115;-77
2023/09/21 03:42:23;;;;;;;6.25;2.85;;;;;;;18.13;100.00;97067.16;1197608;75;4976861;-79
2023/09/21 03:44:56;;;;;;;7.00;3.80;;;;;;;17.99;100.00;97068.50;1198190;75;4006206;-79
2023/09/21 03:47:29;;;;;;;8.30;3.45;;;;;;;17.97;100.00;97069.06;1195151;75;4101874;-79
2023/09/21 03:50:03;;;;;;;8.25;5.05;;;;;;;17.91;100.00;97068.44;1126871;75;8874536;-80
2023/09/21 03:52:36;;;;;;;4.75;3.40;;;;;;;18.19;100.00;97072.56;1130233;75;8746613;-81
2023/09/21 03:55:15;;;;;;;4.05;2.45;;;;;;;18.29;100.00;97076.34;1224034;75;3000563;-78
2023/09/21 03:57:55;;;;;;;;;;;;;;;18.03;100.00;97075.22;1201968;75;9962669;-77
2023/09/21 04:00:29;;;;;;;7.60;4.95;;;;;;;17.79;100.00;97073.47;1220704;75;3118374;-80
2023/09/21 04:03:03;;;;;;;5.20;3.70;;;;;;;17.99;100.00;97082.38;1198261;75;3923534;-81
2023/09/21 04:05:37;;;;;;;8.20;4.90;;;;;;;17.95;100.00;97073.66;1200439;75;4889523;-78
2023/09/21 04:08:11;;;;;;;4.50;3.30;;;;;;;18.18;100.00;97066.28;1199988;75;4004850;-78
2023/09/21 04:10:43;;;;;;;2.95;2.50;;;;;;;18.34;100.00;97071.94;1200103;75;4825312;-78
2023/09/21 04:13:19;;;;;;;7.70;5.70;;;;;;;17.94;100.00;97072.16;1134516;75;5018587;-74
2023/09/21 04:15:51;;;;;;;7.95;6.20;;;;;;;17.88;100.00;97070.28;1226201;75;2950421;-77
2023/09/21 04:18:24;;;;;;;7.35;5.75;;;;;;;17.98;100.00;97064.28;1223687;75;2932418;-77
2023/09/21 04:20:57;;;;;;;6.00;4.60;;;;;;;18.12;100.00;97056.63;1198553;75;3976174;-79
2023/09/21 04:23:30;;;;;;;3.65;2.70;;;;;;;18.38;100.00;97048.16;1224835;67;2921704;-78
2023/09/21 04:26:03;;;;;;;3.45;2.55;;;;;;;18.43;100.00;97035.44;1224091;75;3003720;-79
2023/09/21 04:28:39;;;;;;;3.60;2.45;;;;;;;18.40;100.00;97037.28;1157221;75;8533882;-78
2023/09/21 04:31:13;;;;;;;3.25;2.35;;;;;;;18.46;100.00;97031.56;1187338;75;4901932;-78
2023/09/21 04:33:46;;;;;;;3.65;2.90;;;;;;;18.38;100.00;97028.03;1174550;75;4968968;-79
2023/09/21 04:36:19;;;;;;;2.40;2.20;;;;;;;18.52;100.00;97026.63;1126454;75;10890610;-79
2023/09/21 04:38:52;;;;;;;3.75;2.75;;;;;;;18.45;100.00;97025.28;1154685;75;8807480;-79
2023/09/21 04:41:27;;;;;;;3.85;3.05;;;;;;;18.56;100.00;97032.53;1223024;75;2956468;-76
2023/09/21 04:44:03;;;;;;;3.10;2.50;;;;;;;18.60;100.00;97026.66;1100665;75;12456120;-76
2023/09/21 04:46:36;;;;;;;4.80;3.05;;;;;;;18.49;100.00;97028.44;1200786;75;4907517;-77
2023/09/21 04:49:09;;;;;;;3.65;2.65;;;;;;;18.59;100.00;97025.94;1130036;75;9614535;-80
2023/09/21 04:51:42;;;;;;;8.25;6.40;;;;;;;18.24;100.00;97033.63;1152197;75;8874217;-79
2023/09/21 04:54:15;;;;;;;10.10;8.55;;;;;;;18.13;100.00;97035.94;1222224;75;3066251;-79
2023/09/21 04:56:47;;;;;;;13.50;11.00;;;;;;;18.48;100.00;97023.47;1153719;75;8724017;-79
2023/09/21 04:59:23;;;;;;;11.30;9.30;;;;;;;18.48;100.00;97026.22;1220632;75;2972442;-78
2023/09/21 05:01:56;;;;;;;9.40;7.20;;;;;;;18.40;100.00;97028.19;1211353;75;3917848;-80
2023/09/21 05:04:29;;;;;;;9.50;7.60;;;;;;;18.46;100.00;97021.22;1211061;75;3889127;-81
2023/09/21 05:07:01;;;;;;;9.70;8.45;;;;;;;18.46;100.00;97017.72;1210166;75;3953709;-82
2023/09/21 05:09:34;;;;;;;8.90;7.80;;;;;;;18.59;100.00;97022.41;1199585;75;4962172;-75
2023/09/21 05:12:08;;;;;;;9.45;8.10;;;;;;;18.39;100.00;97019.16;1136285;75;9014812;-76
2023/09/21 05:14:44;;;;;;;7.20;6.15;;;;;;;18.59;100.00;97025.16;1209739;75;3878553;-82
2023/09/21 05:17:16;;;;;;;5.45;4.40;;;;;;;18.65;100.00;97026.50;1223775;75;2953972;-77
2023/09/21 05:19:49;;;;;;;6.20;3.80;;;;;;;18.70;100.00;97025.59;1196853;75;4002722;-77
2023/09/21 05:22:22;;;;;;;6.00;5.00;;;;;;;18.40;100.00;97028.19;1209871;75;3951991;-77
2023/09/21 05:24:55;;;;;;;5.25;3.42;;;;;;;18.65;100.00;97036.84;1173361;75;4998543;-75
2023/09/21 05:27:29;;;;;;;3.70;3.15;;;;;;;18.73;100.00;97034.84;1223360;75;2985930;-79
2023/09/21 05:30:04;;;;;;;3.20;2.90;;;;;;;18.80;100.00;97030.69;1219210;75;3057835;-78
2023/09/21 05:32:37;;;;;;;3.90;2.70;;;;;;;18.91;100.00;97028.34;1193578;75;4047886;-78
2023/09/21 05:35:15;;;;;;;4.40;3.40;;;;;;;18.85;100.00;97019.41;1141497;75;8720167;-78
2023/09/21 05:37:48;;;;;;;3.30;2.60;;;;;;;18.97;100.00;97025.38;1222292;75;3070144;-79
2023/09/21 05:40:21;;;;;;;3.25;2.70;;;;;;;19.12;100.00;97019.91;1223969;75;2930287;-80
2023/09/21 05:42:54;;;;;;;2.95;2.45;;;;;;;19.25;100.00;97015.50;1198326;75;4990150;-78
2023/09/21 05:45:29;;;;;;;8.50;6.55;;;;;;;18.77;100.00;97026.97;1210268;75;3927720;-77
2023/09/21 05:48:01;;;;;;;;;;;;;;;18.72;100.00;97019.53;1146361;75;8656704;-79
2023/09/21 05:50:35;;;;;;;6.85;5.20;;;;;;;19.06;100.00;97013.03;1223388;75;2922255;-76
2023/09/21 05:53:08;;;;;;;4.85;4.00;;;;;;;19.48;100.00;97005.22;1223163;75;2937389;-78
2023/09/21 05:55:41;;;;;;;5.20;4.00;;;;;;;19.54;100.00;96997.44;1209782;75;4029598;-74
2023/09/21 05:58:14;;;;;;;4.10;3.63;;;;;;;19.77;100.00;96993.94;1186634;75;4914223;-77
2023/09/21 06:00:49;;;;;;;3.85;3.10;;;;;;;19.95;100.00;97001.19;1222978;75;2922029;-78
2023/09/21 06:03:28;;;;;;;4.43;3.95;;;;;;;19.71;100.00;97010.81;1157906;75;9730236;-75
2023/09/21 06:06:00;;;;;;;5.55;4.40;;;;;;;19.85;100.00;97002.31;1199905;75;4946950;-78
2023/09/21 06:08:33;;;;;;;6.90;5.32;;;;;;;19.36;100.00;97006.81;1198403;75;4829446;-75
2023/09/21 06:11:06;;;;;;;9.85;7.30;;;;;;;19.32;100.00;97003.69;1225494;75;2924070;-78
2023/09/21 06:13:41;;;;;;;6.45;5.00;;;;;;;19.48;100.00;97007.97;1223219;75;3029561;-80
2023/09/21 06:16:16;;;;;;;6.35;3.85;;;;;;;19.93;100.00;97020.44;1224534;75;2937640;-78
2023/09/21 06:18:49;;;;;;;4.85;4.10;;;;;;;19.83;100.00;97016.75;1208734;75;3965330;-78
2023/09/21 06:21:22;;;;;;;5.00;4.10;;;;;;;19.56;100.00;97003.16;1182357;75;4952412;-79
2023/09/21 06:23:54;;;;;;;6.00;5.00;;;;;;;19.82;100.00;97011.72;1223684;75;2926070;-79
2023/09/21 06:26:34;;;;;;;6.00;4.60;;;;;;;20.26;100.00;97017.09;1186215;75;8756409;-76
2023/09/21 06:29:08;;;;;;;6.60;5.20;;;;;;;19.69;100.00;97018.22;1216317;75;3138359;-78
2023/09/21 06:31:43;;;;;;;6.10;4.80;;;;;;;19.63;100.00;97018.38;1213487;75;3811450;-77
2023/09/21 06:34:21;;;;;;;7.70;4.90;;;;;;;19.68;100.00;97022.28;1221721;75;2941695;-78
2023/09/21 06:36:56;;;;;;;6.20;5.10;;;;;;;19.77;100.00;97027.28;1224496;75;2927503;-81
2023/09/21 06:39:28;;;;;;;3.90;3.50;;;;;;;21.21;100.00;97029.63;1218771;75;3098178;-80
2023/09/21 06:42:03;;;;;;;5.50;4.15;;;;;;;21.67;100.00;97027.38;1206940;75;4010891;-78
2023/09/21 06:44:36;;;;;;;6.35;4.60;;;;;;;21.21;100.00;97035.97;1225211;75;2920902;-79
2023/09/21 06:47:21;;;;;;;4.72;3.88;;;;;;;21.61;100.00;97031.69;1187132;75;10030559;-76
2023/09/21 06:49:54;;;;;;;4.80;3.20;;;;;;;21.34;100.00;97034.97;1193998;75;5169382;-78
2023/09/21 06:52:28;;;;;;;3.10;2.50;;;;;;;22.26;100.00;97028.81;1209391;75;3964449;-80
2023/09/21 06:55:01;;;;;;;2.35;2.00;;;;;;;22.33;100.00;97022.41;1206734;75;4037727;-76
2023/09/21 06:57:34;;;;;;;2.60;2.20;;;;;;;21.98;100.00;97032.72;1195951;75;3927514;-79
2023/09/21 07:00:09;;;;;;;2.30;1.90;;;;;;;21.94;100.00;97031.66;1209760;75;4028363;-76
2023/09/21 07:02:44;;;;;;;4.50;3.00;;;;;;;21.27;100.00;97030.19;1224352;75;2925057;-79
2023/09/21 07:05:19;;;;;;;5.10;2.85;;;;;;;20.78;100.00;97026.66;1185624;75;4829448;-77
2023/09/21 07:07:56;;;;;;;4.55;2.70;;;;;;;21.02;100.00;97030.09;1199117;75;8790215;-75
2023/09/21 07:10:29;;;;;;;3.97;2.85;;;;;;;20.93;100.00;97017.53;1193069;75;4895148;-76
2023/09/21 07:13:03;;;;;;;5.95;4.65;;;;;;;20.21;100.00;97027.13;1198557;75;4924446;-78
2023/09/21 07:15:37;;;;;;;4.15;3.30;;;;;;;20.09;100.00;97042.69;1210530;75;4007939;-80
2023/09/21 07:18:12;;;;;;;6.25;4.90;;;;;;;19.64;100.00;97041.31;1199324;75;3975982;-78
2023/09/21 07:20:46;;;;;;;4.85;4.10;;;;;;;19.45;100.00;97044.41;1221184;75;3044905;-80
2023/09/21 07:23:21;;;;;;;8.10;4.10;;;;;;;19.76;100.00;97039.69;1182461;75;5992109;-81
2023/09/21 07:25:57;;;;;;;5.45;3.60;;;;;;;19.82;100.00;97033.94;1188841;75;5150439;-79
2023/09/21 07:28:32;;;;;;;5.30;3.85;;;;;;;19.66;100.00;97025.59;1208980;75;4007539;-78
2023/09/21 07:31:05;;;;;;;3.70;3.15;;;;;;;19.98;100.00;97032.66;1223989;75;2928189;-79
2023/09/21 07:33:40;;;;;;;3.80;3.30;;;;;;;20.32;100.00;97025.97;1219423;75;3052476;-81
2023/09/21 07:36:14;;;;;;;3.00;2.70;;;;;;;20.74;100.00;97034.66;1222402;75;3060161;-76
2023/09/21 07:38:47;;;;;;;7.20;3.10;;;;;;;20.29;100.00;97025.06;1207286;75;4059409;-78
2023/09/21 07:41:19;;;;;;;4.05;3.40;;;;;;;20.19;100.00;97015.81;1221982;75;3089016;-79
2023/09/21 07:43:52;;;;;;;3.35;2.55;;;;;;;20.29;100.00;97018.78;1224161;75;2925905;-78
2023/09/21 07:46:25;;;;;;;3.00;2.70;;;;;;;20.30;100.00;97021.00;1153823;75;8633487;-80
2023/09/21 07:49:00;;;;;;;4.40;3.40;;;;;;;20.27;100.00;97024.88;1222580;75;3055678;-78
2023/09/21 07:51:33;;;;;;;3.95;3.00;;;;;;;20.56;100.00;97030.97;1220494;75;3065811;-79
2023/09/21 07:54:06;;;;;;;3.15;2.70;;;;;;;20.98;100.00;97024.94;1220556;75;3044574;-77
2023/09/21 07:56:41;;;;;;;2.75;2.45;;;;;;;21.03;100.00;97037.16;1112920;75;8800203;-80
2023/09/21 07:59:14;;;;;;;3.40;2.75;;;;;;;21.19;100.00;97033.00;1207987;75;3978259;-81
2023/09/21 08:01:48;;;;;;;3.90;3.05;;;;;;;21.64;100.00;97036.13;1208334;75;4067262;-80
2023/09/21 08:04:24;;;;;;;4.20;2.95;;;;;;;21.09;100.00;97023.03;1179323;75;5323699;-79
2023/09/21 08:06:59;;;;;;;4.05;3.00;;;;;;;21.66;100.00;97028.66;1211378;75;3951821;-79
2023/09/21 08:09:32;;;;;;;3.60;2.40;;;;;;;22.38;100.00;97022.75;1219742;75;3092203;-80
2023/09/21 08:12:05;;;;;;;3.55;2.25;;;;;;;21.84;98.95;97015.56;1222841;75;2970191;-78
2023/09/21 08:14:37;;;;;;;4.05;2.20;;;;;;;21.36;100.00;97017.69;1217771;75;3073907;-77
2023/09/21 08:17:11;;;;;;;3.05;2.20;;;;;;;21.88;100.00;97013.09;1195473;75;5104370;-78
2023/09/21 08:19:49;;;;;;;5.35;2.25;;;;;;;22.17;100.00;97009.88;1211042;75;3942186;-77
2023/09/21 08:22:22;;;;;;;3.15;1.90;;;;;;;22.62;94.14;97018.44;1221098;75;3028335;-78
2023/09/21 08:24:55;;;;;;;3.60;2.35;;;;;;;22.87;90.39;97021.84;1223815;75;2930362;-80
2023/09/21 08:27:29;;;;;;;4.45;2.65;;;;;;;22.82;88.14;97027.69;1220870;75;3098620;-78
2023/09/21 08:30:03;;;;;;;3.65;2.30;;;;;;;22.96;88.45;97018.41;1223272;75;2985851;-77
2023/09/21 08:32:36;;;;;;;4.15;2.10;;;;;;;22.98;86.48;97015.06;1223086;75;3022169;-79
2023/09/21 08:35:13;;;;;;;4.20;2.20;;;;;;;23.27;83.96;97006.16;1220743;75;3014695;-78
2023/09/21 08:37:47;;;;;;;2.70;2.05;;;;;;;24.95;73.50;96999.84;1222755;75;2919730;-77
2023/09/21 08:40:21;;;;;;;2.60;1.95;;;;;;;26.92;66.34;96996.31;1222594;75;2934472;-78
2023/09/21 08:42:57;;;;;;;3.75;1.80;;;;;;;28.97;58.00;96986.75;1198930;75;3934120;-75
2023/09/21 08:45:30;;;;;;;2.60;1.50;;;;;;;30.06;55.92;96989.72;1212681;75;3921038;-76
2023/09/21 08:48:05;;;;;;;3.30;2.00;;;;;;;27.22;61.21;96994.72;1207480;75;3939340;-77
2023/09/21 08:50:41;;;;;;;3.15;2.10;;;;;;;25.93;66.80;96994.75;1222173;75;2999726;-77
2023/09/21 08:53:18;;;;;;;6.15;1.90;;;;;;;25.07;70.18;96986.72;1210961;75;3943248;-78
2023/09/21 08:55:52;;;;;;;2.70;1.40;;;;;;;26.38;64.88;96978.06;1114371;75;11784174;-75
2023/09/21 08:58:27;;;;;;;1.90;1.35;;;;;;;26.10;66.02;96983.28;1221534;75;3058427;-78
2023/09/21 09:01:01;;;;;;;2.00;1.60;;;;;;;25.48;68.13;96977.66;1210849;75;3995342;-80
2023/09/21 09:03:34;;;;;;;4.00;2.45;;;;;;;25.43;69.59;96975.91;1221292;75;2953759;-79
2023/09/21 09:06:10;;;;;;;5.00;1.90;;;;;;;25.64;67.49;96978.78;1208857;75;3931349;-80
2023/09/21 09:08:43;;;;;;;3.55;1.60;;;;;;;25.63;68.11;96976.56;1224235;75;2924979;-81
2023/09/21 09:11:37;;;;;;;4.00;2.55;;;;;;;25.15;69.86;96977.41;1208683;75;4054582;-80
2023/09/21 09:14:17;;;;;;;3.10;1.90;;;;;;;25.76;68.43;96980.91;1099394;67;12922340;-77
2023/09/21 09:16:50;;;;;;;2.10;1.40;;;;;;;26.44;65.16;96983.38;1220624;75;2970032;-80
2023/09/21 09:19:24;;;;;;;2.20;1.45;;;;;;;26.94;66.76;96973.97;1197236;75;4989169;-80
2023/09/21 09:22:00;;;;;;;4.40;2.40;;;;;;;25.81;68.70;96969.41;1212801;75;3862921;-82
2023/09/21 09:24:35;;;;;;;4.10;2.00;;;;;;;26.18;68.68;96957.84;1222848;75;3004919;-79
2023/09/21 09:27:08;;;;;;;3.30;1.65;;;;;;;26.52;66.51;96944.59;1219326;75;2960396;-79
2023/09/21 09:29:51;;;;;;;3.70;2.25;;;;;;;25.60;69.21;96953.25;1207708;75;4033881;-78
2023/09/21 09:32:35;;;;;;;3.15;2.35;;;;;;;25.16;70.09;96943.22;1222611;75;2927781;-77
2023/09/21 09:35:12;;;;;;;4.20;2.10;;;;;;;25.12;68.57;96937.31;1186373;75;3917213;-78
2023/09/21 09:37:49;;;;;;;2.90;1.60;;;;;;;25.83;67.17;96929.53;1199219;75;4933319;-78
2023/09/21 09:40:23;;;;;;;3.70;1.75;;;;;;;25.99;67.33;96933.44;1207480;75;3873219;-78
2023/09/21 09:42:58;;;;;;;4.10;1.80;;;;;;;26.16;65.74;96923.31;1207409;75;4049578;-76
2023/09/21 09:45:34;;;;;;;2.70;1.60;;;;;;;26.17;65.92;96924.75;1218736;75;3105122;-78
2023/09/21 09:48:15;;;;;;;3.35;1.95;;;;;;;26.53;64.82;96926.41;1221277;75;2994435;-75
2023/09/21 09:50:54;;;;;;;2.30;1.50;;;;;;;26.38;62.53;96918.41;1211032;75;4065584;-77
2023/09/21 09:53:30;;;;;;;2.50;1.50;;;;;;;27.07;63.64;96905.97;1206432;75;4067130;-78
2023/09/21 09:56:07;;;;;;;3.35;1.55;;;;;;;26.63;64.50;96913.06;1198436;75;3936151;-78
2023/09/21 09:58:45;;;;;;;1.90;1.40;;;;;;;26.91;62.72;96900.06;1150369;75;8954392;-80
2023/09/21 10:01:17;;;;;;;4.30;1.90;;;;;;;26.80;63.64;96889.56;1218820;75;3058719;-77
2023/09/21 10:03:53;;;;;;;3.90;1.70;;;;;;;26.85;62.91;96877.22;1210242;75;4018712;-78
2023/09/21 10:06:26;;;;;;;5.40;1.90;;;;;;;27.36;62.00;96871.94;1220293;75;2966528;-77
2023/09/21 10:09:02;;;;;;;6.95;3.05;;;;;;;26.58;57.47;96877.66;1220336;75;2967533;-78
2023/09/21 10:11:35;;;;;;;5.55;2.05;;;;;;;27.09;57.20;96877.28;1217386;75;3074698;-80
2023/09/21 10:14:11;;;;;;;2.75;1.30;;;;;;;26.69;57.44;96876.22;1221432;75;3015491;-77
2023/09/21 10:16:49;;;;;;;5.35;1.70;;;;;;;26.67;57.50;96876.81;1220177;75;3108717;-77
2023/09/21 10:19:28;;;;;;;4.80;1.50;;;;;;;27.37;55.71;96881.09;1223444;75;2924974;-77
2023/09/21 10:22:03;;;;;;;2.25;1.10;;;;;;;26.98;55.52;96878.72;1223333;75;2925342;-77
2023/09/21 10:24:39;;;;;;;6.35;1.65;;;;;;;27.06;56.17;96876.41;1196445;75;3944709;-77
2023/09/21 10:27:11;;;;;;;4.05;1.35;;;;;;;26.55;56.53;96873.22;1208708;75;4021839;-76
2023/09/21 10:29:45;;;;;;;3.90;1.45;;;;;;;26.64;55.25;96878.03;1220339;75;3037308;-77
2023/09/21 10:32:24;;;;;;;4.50;1.60;;;;;;;27.04;54.16;96864.31;1222362;75;2920878;-79
2023/09/21 10:34:59;;;;;;;3.50;1.15;;;;;;;26.99;53.79;96855.63;1222709;75;2923131;-77
2023/09/21 10:37:33;;;;;;;5.65;1.30;;;;;;;27.31;53.64;96852.63;1195837;75;4017969;-77
2023/09/21 10:40:10;;;;;;;8.15;1.30;;;;;;;26.92;53.32;96858.69;1222149;75;2922318;-78
2023/09/21 10:42:42;;;;;;;4.10;1.40;;;;;;;27.28;52.61;96851.06;1224591;75;2927387;-79
2023/09/21 10:45:15;;;;;;;4.10;1.15;;;;;;;27.45;51.18;96842.22;1223234;75;2929110;-79
2023/09/21 10:47:52;;;;;;;3.40;1.40;;;;;;;27.90;51.31;96830.81;1221640;75;3023304;-79
2023/09/21 10:50:26;;;;;;;6.45;1.85;;;;;;;27.78;51.57;96836.44;1205123;75;3992677;-77
2023/09/21 10:53:00;;;;;;;4.70;1.30;;;;;;;27.56;50.74;96835.84;1222577;75;2930947;-79
2023/09/21 10:55:36;;;;;;;3.65;1.30;;;;;;;27.95;50.94;96838.13;1223313;75;2924318;-77
2023/09/21 10:58:09;;;;;;;6.95;1.60;;;;;;;27.58;51.36;96829.63;1221823;75;3041946;-78
2023/09/21 11:00:42;;;;;;;6.60;1.30;;;;;;;27.47;51.54;96835.97;1216387;75;3088539;-78
2023/09/21 11:03:15;;;;;;;6.05;1.10;;;;;;;26.90;52.14;96828.38;1210051;75;3895768;-77
2023/09/21 11:05:51;;;;;;;4.90;1.10;;;;;;;27.09;52.07;96815.47;1217664;75;3053917;-79
2023/09/21 11:08:26;;;;;;;10.20;2.10;;;;;;;27.24;51.34;96811.47;1183249;75;4848274;-78
2023/09/21 11:11:02;;;;;;;4.10;1.10;;;;;;;28.12;49.94;96816.53;1195579;75;4110579;-77
2023/09/21 11:13:35;;;;;;;3.30;1.40;;;;;;;27.85;50.90;96808.69;1218860;75;3047520;-76
2023/09/21 11:16:09;;;;;;;5.50;1.40;;;;;;;28.17;50.00;96813.34;1216530;75;3074572;-80
2023/09/21 11:18:42;;;;;;;3.30;1.00;;;;;;;28.01;51.67;96809.59;1208190;75;3932217;-77
2023/09/21 11:21:16;;;;;;;7.10;1.75;;;;;;;28.06;50.63;96805.66;1151658;75;8712389;-77
2023/09/21 11:23:49;;;;;;;5.95;1.50;;;;;;;27.87;50.43;96798.28;1209828;75;3861349;-78
2023/09/21 11:26:27;;;;;;;8.15;1.50;;;;;;;27.73;50.70;96803.81;1219951;75;3046672;-79
2023/09/21 11:29:00;;;;;;;5.60;1.30;;;;;;;27.84;50.16;96796.69;1219516;75;3090900;-77
2023/09/21 11:31:34;;;;;;;5.35;1.00;;;;;;;27.55;50.67;96800.66;1221162;75;3067986;-79
2023/09/21 11:34:09;;;;;;;6.45;1.70;;;;;;;28.21;50.44;96802.31;1223207;75;2924370;-80
2023/09/21 11:36:43;;;;;;;3.70;1.40;;;;;;;28.45;50.21;96802.97;1218869;75;3032332;-78
2023/09/21 11:39:16;;;;;;;4.30;1.65;;;;;;;28.02;49.22;96794.94;1220022;75;2962136;-76
2023/09/21 11:41:54;;;;;;;6.85;1.35;;;;;;;27.89;50.24;96800.47;1220683;75;3030613;-79
2023/09/21 11:44:35;;;;;;;7.50;1.50;;;;;;;27.95;49.25;96793.13;1216876;75;3111249;-80